sensor_id;sensor_type;location;lat;lon;timestamp;P1;durP1;ratioP1;P2;durP2;ratioP2
23990;SDS011;12205;50.600;4.608;2023-01-10T00:00:57;20.35;;;3.90;;
23990;SDS011;12205;50.600;4.608;2023-01-10T00:03:32;24.25;;;3.55;;
23990;SDS011;12205;50.600;4.608;2023-01-10T00:06:00;19.80;;;4.03;;
23990;SDS011;12205;50.600;4.608;2023-01-10T00:08:27;24.00;;;5.13;;
23990;SDS011;12205;50.600;4.608;2023-01-10T00:10:55;16.58;;;3.17;;
23990;SDS011;12205;50.600;4.608;2023-01-10T00:13:22;15.30;;;3.42;;
23990;SDS011;12205;50.600;4.608;2023-01-10T00:15:50;21.27;;;3.67;;
23990;SDS011;12205;50.600;4.608;2023-01-10T00:18:21;23.08;;;3.50;;
23990;SDS011;12205;50.600;4.608;2023-01-10T00:20:48;18.70;;;2.97;;
23990;SDS011;12205;50.600;4.608;2023-01-10T00:23:15;15.82;;;3.08;;
23990;SDS011;12205;50.600;4.608;2023-01-10T00:28:14;20.05;;;3.63;;
23990;SDS011;12205;50.600;4.608;2023-01-10T00:30:46;18.30;;;5.15;;
23990;SDS011;12205;50.600;4.608;2023-01-10T00:33:26;20.00;;;3.83;;
23990;SDS011;12205;50.600;4.608;2023-01-10T00:35:56;20.98;;;3.80;;
23990;SDS011;12205;50.600;4.608;2023-01-10T00:38:23;11.38;;;2.20;;
23990;SDS011;12205;50.600;4.608;2023-01-10T00:40:50;22.08;;;3.50;;
23990;SDS011;12205;50.600;4.608;2023-01-10T00:43:18;17.33;;;2.95;;
23990;SDS011;12205;50.600;4.608;2023-01-10T00:46:03;18.10;;;3.03;;
23990;SDS011;12205;50.600;4.608;2023-01-10T00:48:32;14.05;;;2.95;;
23990;SDS011;12205;50.600;4.608;2023-01-10T00:50:59;22.48;;;3.63;;
23990;SDS011;12205;50.600;4.608;2023-01-10T00:53:27;16.33;;;2.78;;
23990;SDS011;12205;50.600;4.608;2023-01-10T00:55:54;20.30;;;3.47;;
23990;SDS011;12205;50.600;4.608;2023-01-10T00:58:22;16.75;;;3.88;;
23990;SDS011;12205;50.600;4.608;2023-01-10T01:00:49;16.15;;;3.35;;
23990;SDS011;12205;50.600;4.608;2023-01-10T01:03:17;20.50;;;3.60;;
23990;SDS011;12205;50.600;4.608;2023-01-10T01:05:48;19.08;;;3.42;;
23990;SDS011;12205;50.600;4.608;2023-01-10T01:08:16;18.60;;;2.67;;
23990;SDS011;12205;50.600;4.608;2023-01-10T01:10:44;20.23;;;3.45;;
23990;SDS011;12205;50.600;4.608;2023-01-10T01:13:13;22.25;;;3.83;;
23990;SDS011;12205;50.600;4.608;2023-01-10T01:15:44;18.85;;;3.10;;
23990;SDS011;12205;50.600;4.608;2023-01-10T01:18:13;15.40;;;2.70;;
23990;SDS011;12205;50.600;4.608;2023-01-10T01:20:45;20.98;;;3.25;;
23990;SDS011;12205;50.600;4.608;2023-01-10T01:23:15;17.92;;;3.25;;
23990;SDS011;12205;50.600;4.608;2023-01-10T01:25:42;26.67;;;4.78;;
23990;SDS011;12205;50.600;4.608;2023-01-10T01:28:10;21.38;;;3.10;;
23990;SDS011;12205;50.600;4.608;2023-01-10T01:30:38;16.58;;;3.08;;
23990;SDS011;12205;50.600;4.608;2023-01-10T01:33:06;17.45;;;2.95;;
23990;SDS011;12205;50.600;4.608;2023-01-10T01:35:33;16.70;;;3.10;;
23990;SDS011;12205;50.600;4.608;2023-01-10T01:38:00;28.52;;;4.10;;
23990;SDS011;12205;50.600;4.608;2023-01-10T01:40:29;17.17;;;2.75;;
23990;SDS011;12205;50.600;4.608;2023-01-10T01:42:56;18.20;;;2.95;;
23990;SDS011;12205;50.600;4.608;2023-01-10T01:45:31;15.45;;;2.85;;
23990;SDS011;12205;50.600;4.608;2023-01-10T01:48:05;22.20;;;3.83;;
23990;SDS011;12205;50.600;4.608;2023-01-10T01:50:47;16.63;;;3.33;;
23990;SDS011;12205;50.600;4.608;2023-01-10T01:53:22;16.75;;;3.50;;
23990;SDS011;12205;50.600;4.608;2023-01-10T01:55:56;10.52;;;2.50;;
23990;SDS011;12205;50.600;4.608;2023-01-10T01:58:29;19.15;;;3.78;;
23990;SDS011;12205;50.600;4.608;2023-01-10T02:01:05;20.27;;;3.00;;
23990;SDS011;12205;50.600;4.608;2023-01-10T02:03:32;18.38;;;3.42;;
23990;SDS011;12205;50.600;4.608;2023-01-10T02:06:01;12.15;;;2.58;;
23990;SDS011;12205;50.600;4.608;2023-01-10T02:08:29;19.77;;;3.55;;
23990;SDS011;12205;50.600;4.608;2023-01-10T02:11:00;17.13;;;2.60;;
23990;SDS011;12205;50.600;4.608;2023-01-10T02:13:36;9.10;;;2.47;;
23990;SDS011;12205;50.600;4.608;2023-01-10T02:16:07;20.73;;;2.95;;
23990;SDS011;12205;50.600;4.608;2023-01-10T02:18:36;8.77;;;2.03;;
23990;SDS011;12205;50.600;4.608;2023-01-10T02:21:14;18.38;;;3.42;;
23990;SDS011;12205;50.600;4.608;2023-01-10T02:24:04;17.15;;;3.15;;
23990;SDS011;12205;50.600;4.608;2023-01-10T02:27:21;20.52;;;3.53;;
23990;SDS011;12205;50.600;4.608;2023-01-10T02:33:05;11.98;;;2.70;;
23990;SDS011;12205;50.600;4.608;2023-01-10T02:35:47;27.10;;;4.20;;
23990;SDS011;12205;50.600;4.608;2023-01-10T02:38:41;15.77;;;2.85;;
23990;SDS011;12205;50.600;4.608;2023-01-10T02:41:24;20.42;;;3.33;;
23990;SDS011;12205;50.600;4.608;2023-01-10T02:44:00;21.33;;;3.45;;
23990;SDS011;12205;50.600;4.608;2023-01-10T02:46:33;21.88;;;3.70;;
23990;SDS011;12205;50.600;4.608;2023-01-10T02:49:05;19.83;;;4.30;;
23990;SDS011;12205;50.600;4.608;2023-01-10T02:51:32;26.85;;;4.57;;
23990;SDS011;12205;50.600;4.608;2023-01-10T02:54:00;14.52;;;3.70;;
23990;SDS011;12205;50.600;4.608;2023-01-10T03:00:02;15.80;;;3.75;;
23990;SDS011;12205;50.600;4.608;2023-01-10T03:03:01;21.27;;;4.40;;
23990;SDS011;12205;50.600;4.608;2023-01-10T03:05:48;20.20;;;3.90;;
23990;SDS011;12205;50.600;4.608;2023-01-10T03:08:28;15.25;;;3.20;;
23990;SDS011;12205;50.600;4.608;2023-01-10T03:11:03;8.90;;;2.75;;
23990;SDS011;12205;50.600;4.608;2023-01-10T03:13:34;18.17;;;3.75;;
23990;SDS011;12205;50.600;4.608;2023-01-10T03:16:14;25.95;;;3.88;;
23990;SDS011;12205;50.600;4.608;2023-01-10T03:18:47;16.42;;;3.20;;
23990;SDS011;12205;50.600;4.608;2023-01-10T03:21:23;26.92;;;5.70;;
23990;SDS011;12205;50.600;4.608;2023-01-10T03:23:53;21.25;;;4.55;;
23990;SDS011;12205;50.600;4.608;2023-01-10T03:26:28;28.33;;;4.97;;
23990;SDS011;12205;50.600;4.608;2023-01-10T03:31:39;22.75;;;3.97;;
23990;SDS011;12205;50.600;4.608;2023-01-10T03:34:13;21.95;;;4.30;;
23990;SDS011;12205;50.600;4.608;2023-01-10T03:36:44;28.25;;;4.68;;
23990;SDS011;12205;50.600;4.608;2023-01-10T03:39:22;23.23;;;3.70;;
23990;SDS011;12205;50.600;4.608;2023-01-10T03:42:01;17.35;;;3.80;;
23990;SDS011;12205;50.600;4.608;2023-01-10T03:44:37;26.05;;;4.38;;
23990;SDS011;12205;50.600;4.608;2023-01-10T03:47:18;14.65;;;3.38;;
23990;SDS011;12205;50.600;4.608;2023-01-10T03:49:55;28.23;;;4.82;;
23990;SDS011;12205;50.600;4.608;2023-01-10T03:52:28;36.50;;;5.38;;
23990;SDS011;12205;50.600;4.608;2023-01-10T03:54:59;26.58;;;5.20;;
23990;SDS011;12205;50.600;4.608;2023-01-10T03:57:27;23.05;;;4.25;;
23990;SDS011;12205;50.600;4.608;2023-01-10T03:59:55;26.23;;;4.60;;
23990;SDS011;12205;50.600;4.608;2023-01-10T04:02:25;26.17;;;4.63;;
23990;SDS011;12205;50.600;4.608;2023-01-10T04:04:55;33.35;;;5.30;;
23990;SDS011;12205;50.600;4.608;2023-01-10T04:07:23;30.27;;;4.32;;
23990;SDS011;12205;50.600;4.608;2023-01-10T04:09:52;22.02;;;4.25;;
23990;SDS011;12205;50.600;4.608;2023-01-10T04:12:20;34.63;;;5.30;;
23990;SDS011;12205;50.600;4.608;2023-01-10T04:14:47;28.08;;;5.35;;
23990;SDS011;12205;50.600;4.608;2023-01-10T04:17:15;22.85;;;4.75;;
23990;SDS011;12205;50.600;4.608;2023-01-10T04:19:43;25.35;;;4.00;;
23990;SDS011;12205;50.600;4.608;2023-01-10T04:22:11;32.15;;;5.70;;
23990;SDS011;12205;50.600;4.608;2023-01-10T04:24:38;25.55;;;4.70;;
23990;SDS011;12205;50.600;4.608;2023-01-10T04:27:09;22.80;;;5.38;;
23990;SDS011;12205;50.600;4.608;2023-01-10T04:29:36;21.60;;;4.03;;
23990;SDS011;12205;50.600;4.608;2023-01-10T04:32:04;22.30;;;4.05;;
23990;SDS011;12205;50.600;4.608;2023-01-10T04:34:31;18.73;;;3.85;;
23990;SDS011;12205;50.600;4.608;2023-01-10T04:36:58;26.88;;;4.22;;
23990;SDS011;12205;50.600;4.608;2023-01-10T04:39:26;31.08;;;5.07;;
23990;SDS011;12205;50.600;4.608;2023-01-10T04:41:53;38.92;;;6.65;;
23990;SDS011;12205;50.600;4.608;2023-01-10T04:44:21;39.70;;;5.72;;
23990;SDS011;12205;50.600;4.608;2023-01-10T04:46:49;30.58;;;5.03;;
23990;SDS011;12205;50.600;4.608;2023-01-10T04:49:16;27.05;;;6.22;;
23990;SDS011;12205;50.600;4.608;2023-01-10T04:51:43;34.22;;;5.32;;
23990;SDS011;12205;50.600;4.608;2023-01-10T04:54:10;26.77;;;5.43;;
23990;SDS011;12205;50.600;4.608;2023-01-10T04:56:37;36.58;;;5.35;;
23990;SDS011;12205;50.600;4.608;2023-01-10T04:59:05;25.13;;;4.57;;
23990;SDS011;12205;50.600;4.608;2023-01-10T05:01:33;31.13;;;5.47;;
23990;SDS011;12205;50.600;4.608;2023-01-10T05:04:03;21.53;;;3.03;;
23990;SDS011;12205;50.600;4.608;2023-01-10T05:06:32;32.45;;;5.43;;
23990;SDS011;12205;50.600;4.608;2023-01-10T05:08:59;28.17;;;5.05;;
23990;SDS011;12205;50.600;4.608;2023-01-10T05:11:26;27.75;;;4.88;;
23990;SDS011;12205;50.600;4.608;2023-01-10T05:13:53;28.35;;;5.15;;
23990;SDS011;12205;50.600;4.608;2023-01-10T05:16:21;30.85;;;5.28;;
23990;SDS011;12205;50.600;4.608;2023-01-10T05:18:50;23.85;;;4.63;;
23990;SDS011;12205;50.600;4.608;2023-01-10T05:21:18;31.55;;;6.00;;
23990;SDS011;12205;50.600;4.608;2023-01-10T05:23:45;28.05;;;4.72;;
23990;SDS011;12205;50.600;4.608;2023-01-10T05:26:13;27.02;;;4.88;;
23990;SDS011;12205;50.600;4.608;2023-01-10T05:28:42;18.65;;;3.65;;
23990;SDS011;12205;50.600;4.608;2023-01-10T05:31:11;26.35;;;4.45;;
23990;SDS011;12205;50.600;4.608;2023-01-10T05:33:42;26.05;;;3.47;;
23990;SDS011;12205;50.600;4.608;2023-01-10T05:36:12;30.67;;;5.18;;
23990;SDS011;12205;50.600;4.608;2023-01-10T05:38:40;28.30;;;6.05;;
23990;SDS011;12205;50.600;4.608;2023-01-10T05:41:07;21.13;;;4.07;;
23990;SDS011;12205;50.600;4.608;2023-01-10T05:43:35;19.73;;;3.90;;
23990;SDS011;12205;50.600;4.608;2023-01-10T05:46:02;30.60;;;5.07;;
23990;SDS011;12205;50.600;4.608;2023-01-10T05:48:30;25.40;;;4.60;;
23990;SDS011;12205;50.600;4.608;2023-01-10T05:50:57;35.78;;;5.57;;
23990;SDS011;12205;50.600;4.608;2023-01-10T05:53:28;36.33;;;5.28;;
23990;SDS011;12205;50.600;4.608;2023-01-10T05:55:56;32.58;;;5.72;;
23990;SDS011;12205;50.600;4.608;2023-01-10T05:58:26;31.75;;;5.03;;
23990;SDS011;12205;50.600;4.608;2023-01-10T06:00:55;30.05;;;6.53;;
23990;SDS011;12205;50.600;4.608;2023-01-10T06:03:23;28.40;;;5.03;;
23990;SDS011;12205;50.600;4.608;2023-01-10T06:05:51;31.42;;;5.47;;
23990;SDS011;12205;50.600;4.608;2023-01-10T06:08:21;30.92;;;5.57;;
23990;SDS011;12205;50.600;4.608;2023-01-10T06:10:50;28.70;;;5.55;;
23990;SDS011;12205;50.600;4.608;2023-01-10T06:13:17;20.65;;;4.20;;
23990;SDS011;12205;50.600;4.608;2023-01-10T06:15:44;23.42;;;3.70;;
23990;SDS011;12205;50.600;4.608;2023-01-10T06:18:12;29.38;;;5.38;;
23990;SDS011;12205;50.600;4.608;2023-01-10T06:20:42;29.50;;;4.93;;
23990;SDS011;12205;50.600;4.608;2023-01-10T06:23:10;37.58;;;5.20;;
23990;SDS011;12205;50.600;4.608;2023-01-10T06:25:37;23.98;;;4.40;;
23990;SDS011;12205;50.600;4.608;2023-01-10T06:28:07;24.65;;;5.82;;
23990;SDS011;12205;50.600;4.608;2023-01-10T06:30:35;28.95;;;5.45;;
23990;SDS011;12205;50.600;4.608;2023-01-10T06:33:03;25.98;;;5.18;;
23990;SDS011;12205;50.600;4.608;2023-01-10T06:35:32;27.80;;;4.43;;
23990;SDS011;12205;50.600;4.608;2023-01-10T06:38:00;24.13;;;4.13;;
23990;SDS011;12205;50.600;4.608;2023-01-10T06:40:28;29.55;;;5.28;;
23990;SDS011;12205;50.600;4.608;2023-01-10T06:42:56;24.55;;;4.80;;
23990;SDS011;12205;50.600;4.608;2023-01-10T06:45:25;31.00;;;6.03;;
23990;SDS011;12205;50.600;4.608;2023-01-10T06:47:52;27.50;;;4.85;;
23990;SDS011;12205;50.600;4.608;2023-01-10T06:50:19;23.98;;;5.63;;
23990;SDS011;12205;50.600;4.608;2023-01-10T06:52:53;30.65;;;5.45;;
23990;SDS011;12205;50.600;4.608;2023-01-10T06:55:22;41.97;;;5.70;;
23990;SDS011;12205;50.600;4.608;2023-01-10T06:57:53;36.05;;;6.82;;
23990;SDS011;12205;50.600;4.608;2023-01-10T07:00:22;26.65;;;5.00;;
23990;SDS011;12205;50.600;4.608;2023-01-10T07:02:52;18.60;;;3.45;;
23990;SDS011;12205;50.600;4.608;2023-01-10T07:05:21;22.70;;;4.75;;
23990;SDS011;12205;50.600;4.608;2023-01-10T07:07:48;24.20;;;4.65;;
23990;SDS011;12205;50.600;4.608;2023-01-10T07:10:15;26.95;;;5.00;;
23990;SDS011;12205;50.600;4.608;2023-01-10T07:12:43;22.92;;;5.03;;
23990;SDS011;12205;50.600;4.608;2023-01-10T07:15:10;36.60;;;5.53;;
23990;SDS011;12205;50.600;4.608;2023-01-10T07:17:39;31.95;;;6.90;;
23990;SDS011;12205;50.600;4.608;2023-01-10T07:20:07;27.20;;;5.43;;
23990;SDS011;12205;50.600;4.608;2023-01-10T07:22:37;23.60;;;4.40;;
23990;SDS011;12205;50.600;4.608;2023-01-10T07:25:04;32.97;;;5.35;;
23990;SDS011;12205;50.600;4.608;2023-01-10T07:27:32;28.95;;;5.53;;
23990;SDS011;12205;50.600;4.608;2023-01-10T07:30:04;25.88;;;4.95;;
23990;SDS011;12205;50.600;4.608;2023-01-10T07:32:36;19.80;;;4.57;;
23990;SDS011;12205;50.600;4.608;2023-01-10T07:35:05;28.17;;;4.43;;
23990;SDS011;12205;50.600;4.608;2023-01-10T07:37:34;23.90;;;4.30;;
23990;SDS011;12205;50.600;4.608;2023-01-10T07:40:01;25.55;;;4.82;;
23990;SDS011;12205;50.600;4.608;2023-01-10T07:42:30;23.45;;;3.60;;
23990;SDS011;12205;50.600;4.608;2023-01-10T07:44:57;31.90;;;5.50;;
23990;SDS011;12205;50.600;4.608;2023-01-10T07:47:24;29.17;;;4.45;;
23990;SDS011;12205;50.600;4.608;2023-01-10T07:49:52;29.35;;;4.80;;
23990;SDS011;12205;50.600;4.608;2023-01-10T07:52:21;26.65;;;4.47;;
23990;SDS011;12205;50.600;4.608;2023-01-10T07:54:48;35.85;;;5.97;;
23990;SDS011;12205;50.600;4.608;2023-01-10T07:57:16;20.45;;;4.22;;
23990;SDS011;12205;50.600;4.608;2023-01-10T07:59:43;20.45;;;4.07;;
23990;SDS011;12205;50.600;4.608;2023-01-10T08:02:10;27.60;;;4.53;;
23990;SDS011;12205;50.600;4.608;2023-01-10T08:04:37;25.70;;;4.90;;
23990;SDS011;12205;50.600;4.608;2023-01-10T08:07:05;20.52;;;5.20;;
23990;SDS011;12205;50.600;4.608;2023-01-10T08:09:33;30.35;;;5.20;;
23990;SDS011;12205;50.600;4.608;2023-01-10T08:12:01;30.60;;;4.15;;
23990;SDS011;12205;50.600;4.608;2023-01-10T08:14:28;30.35;;;4.70;;
23990;SDS011;12205;50.600;4.608;2023-01-10T08:16:55;96.65;;;20.10;;
23990;SDS011;12205;50.600;4.608;2023-01-10T08:19:22;70.03;;;16.83;;
23990;SDS011;12205;50.600;4.608;2023-01-10T08:21:50;93.57;;;24.00;;
23990;SDS011;12205;50.600;4.608;2023-01-10T08:24:17;40.00;;;11.15;;
23990;SDS011;12205;50.600;4.608;2023-01-10T08:26:46;27.05;;;5.53;;
23990;SDS011;12205;50.600;4.608;2023-01-10T08:29:13;35.97;;;9.77;;
23990;SDS011;12205;50.600;4.608;2023-01-10T08:31:40;29.38;;;5.88;;
23990;SDS011;12205;50.600;4.608;2023-01-10T08:34:08;29.08;;;5.93;;
23990;SDS011;12205;50.600;4.608;2023-01-10T08:36:35;29.27;;;5.15;;
23990;SDS011;12205;50.600;4.608;2023-01-10T08:39:02;32.67;;;6.53;;
23990;SDS011;12205;50.600;4.608;2023-01-10T08:41:30;26.33;;;4.53;;
23990;SDS011;12205;50.600;4.608;2023-01-10T08:43:58;28.75;;;4.82;;
23990;SDS011;12205;50.600;4.608;2023-01-10T08:46:26;25.35;;;5.30;;
23990;SDS011;12205;50.600;4.608;2023-01-10T08:48:53;23.08;;;5.22;;
23990;SDS011;12205;50.600;4.608;2023-01-10T08:51:20;33.63;;;7.15;;
23990;SDS011;12205;50.600;4.608;2023-01-10T08:53:47;30.20;;;5.00;;
23990;SDS011;12205;50.600;4.608;2023-01-10T08:56:15;18.20;;;3.65;;
23990;SDS011;12205;50.600;4.608;2023-01-10T08:58:42;37.38;;;6.75;;
23990;SDS011;12205;50.600;4.608;2023-01-10T09:01:10;15.45;;;3.47;;
23990;SDS011;12205;50.600;4.608;2023-01-10T09:03:38;21.60;;;4.22;;
23990;SDS011;12205;50.600;4.608;2023-01-10T09:06:06;19.88;;;3.85;;
23990;SDS011;12205;50.600;4.608;2023-01-10T09:08:34;26.35;;;5.00;;
23990;SDS011;12205;50.600;4.608;2023-01-10T09:11:02;24.83;;;4.28;;
23990;SDS011;12205;50.600;4.608;2023-01-10T09:13:31;21.45;;;5.85;;
23990;SDS011;12205;50.600;4.608;2023-01-10T09:15:59;32.97;;;6.75;;
23990;SDS011;12205;50.600;4.608;2023-01-10T09:18:27;32.50;;;6.53;;
23990;SDS011;12205;50.600;4.608;2023-01-10T09:20:55;44.33;;;7.90;;
23990;SDS011;12205;50.600;4.608;2023-01-10T09:23:22;24.40;;;5.63;;
23990;SDS011;12205;50.600;4.608;2023-01-10T09:25:50;28.42;;;6.32;;
23990;SDS011;12205;50.600;4.608;2023-01-10T09:28:20;36.85;;;5.80;;
23990;SDS011;12205;50.600;4.608;2023-01-10T09:30:48;37.22;;;5.50;;
23990;SDS011;12205;50.600;4.608;2023-01-10T09:33:16;41.70;;;6.28;;
23990;SDS011;12205;50.600;4.608;2023-01-10T09:35:46;33.83;;;5.65;;
23990;SDS011;12205;50.600;4.608;2023-01-10T09:38:14;41.65;;;7.90;;
23990;SDS011;12205;50.600;4.608;2023-01-10T09:40:51;35.58;;;6.22;;
23990;SDS011;12205;50.600;4.608;2023-01-10T09:43:30;27.95;;;5.22;;
23990;SDS011;12205;50.600;4.608;2023-01-10T09:46:11;28.60;;;6.68;;
23990;SDS011;12205;50.600;4.608;2023-01-10T09:48:53;29.40;;;5.10;;
23990;SDS011;12205;50.600;4.608;2023-01-10T09:51:31;30.80;;;4.88;;
23990;SDS011;12205;50.600;4.608;2023-01-10T09:54:04;43.88;;;6.35;;
23990;SDS011;12205;50.600;4.608;2023-01-10T09:56:38;29.58;;;6.03;;
23990;SDS011;12205;50.600;4.608;2023-01-10T09:59:08;27.15;;;4.43;;
23990;SDS011;12205;50.600;4.608;2023-01-10T10:01:42;15.93;;;3.70;;
23990;SDS011;12205;50.600;4.608;2023-01-10T10:04:18;17.50;;;3.87;;
23990;SDS011;12205;50.600;4.608;2023-01-10T10:06:54;32.63;;;4.80;;
23990;SDS011;12205;50.600;4.608;2023-01-10T10:09:22;26.83;;;4.05;;
23990;SDS011;12205;50.600;4.608;2023-01-10T10:11:57;28.83;;;5.53;;
23990;SDS011;12205;50.600;4.608;2023-01-10T10:14:51;19.27;;;3.10;;
23990;SDS011;12205;50.600;4.608;2023-01-10T10:17:36;31.77;;;4.97;;
23990;SDS011;12205;50.600;4.608;2023-01-10T10:20:14;20.73;;;4.45;;
23990;SDS011;12205;50.600;4.608;2023-01-10T10:23:09;17.35;;;3.25;;
23990;SDS011;12205;50.600;4.608;2023-01-10T10:25:59;24.80;;;3.75;;
23990;SDS011;12205;50.600;4.608;2023-01-10T10:28:40;26.77;;;4.35;;
23990;SDS011;12205;50.600;4.608;2023-01-10T10:31:58;36.30;;;5.03;;
23990;SDS011;12205;50.600;4.608;2023-01-10T10:34:49;23.95;;;4.00;;
23990;SDS011;12205;50.600;4.608;2023-01-10T10:37:21;26.15;;;3.72;;
23990;SDS011;12205;50.600;4.608;2023-01-10T10:39:59;28.65;;;5.07;;
23990;SDS011;12205;50.600;4.608;2023-01-10T10:42:32;32.78;;;5.47;;
23990;SDS011;12205;50.600;4.608;2023-01-10T10:45:03;26.42;;;4.28;;
23990;SDS011;12205;50.600;4.608;2023-01-10T10:47:40;21.70;;;4.15;;
23990;SDS011;12205;50.600;4.608;2023-01-10T10:50:16;26.25;;;4.07;;
23990;SDS011;12205;50.600;4.608;2023-01-10T10:52:50;24.73;;;4.05;;
23990;SDS011;12205;50.600;4.608;2023-01-10T10:55:21;21.05;;;4.13;;
23990;SDS011;12205;50.600;4.608;2023-01-10T10:57:56;22.33;;;4.88;;
23990;SDS011;12205;50.600;4.608;2023-01-10T11:00:23;28.02;;;5.07;;
23990;SDS011;12205;50.600;4.608;2023-01-10T11:02:54;21.52;;;3.95;;
23990;SDS011;12205;50.600;4.608;2023-01-10T11:05:30;32.25;;;4.97;;
23990;SDS011;12205;50.600;4.608;2023-01-10T11:08:04;28.73;;;4.70;;
23990;SDS011;12205;50.600;4.608;2023-01-10T11:10:36;27.92;;;3.97;;
23990;SDS011;12205;50.600;4.608;2023-01-10T11:13:11;42.25;;;4.97;;
23990;SDS011;12205;50.600;4.608;2023-01-10T11:15:46;24.45;;;4.05;;
23990;SDS011;12205;50.600;4.608;2023-01-10T11:18:16;21.60;;;3.15;;
23990;SDS011;12205;50.600;4.608;2023-01-10T11:20:50;29.15;;;5.57;;
23990;SDS011;12205;50.600;4.608;2023-01-10T11:23:23;41.15;;;6.13;;
23990;SDS011;12205;50.600;4.608;2023-01-10T11:26:04;24.52;;;4.25;;
23990;SDS011;12205;50.600;4.608;2023-01-10T11:28:35;25.17;;;4.13;;
23990;SDS011;12205;50.600;4.608;2023-01-10T11:31:03;22.27;;;3.92;;
23990;SDS011;12205;50.600;4.608;2023-01-10T11:33:32;24.02;;;3.92;;
23990;SDS011;12205;50.600;4.608;2023-01-10T11:36:01;18.45;;;3.53;;
23990;SDS011;12205;50.600;4.608;2023-01-10T11:38:31;21.65;;;3.47;;
23990;SDS011;12205;50.600;4.608;2023-01-10T11:41:00;18.15;;;3.53;;
23990;SDS011;12205;50.600;4.608;2023-01-10T11:46:01;28.52;;;4.90;;
23990;SDS011;12205;50.600;4.608;2023-01-10T11:48:44;26.50;;;5.30;;
23990;SDS011;12205;50.600;4.608;2023-01-10T11:51:18;25.83;;;5.53;;
23990;SDS011;12205;50.600;4.608;2023-01-10T11:53:51;32.47;;;4.97;;
23990;SDS011;12205;50.600;4.608;2023-01-10T11:56:26;32.65;;;6.07;;
23990;SDS011;12205;50.600;4.608;2023-01-10T11:58:58;26.98;;;4.25;;
23990;SDS011;12205;50.600;4.608;2023-01-10T12:01:39;25.77;;;4.23;;
23990;SDS011;12205;50.600;4.608;2023-01-10T12:04:13;18.98;;;3.30;;
23990;SDS011;12205;50.600;4.608;2023-01-10T12:06:42;26.60;;;3.47;;
23990;SDS011;12205;50.600;4.608;2023-01-10T12:12:01;23.45;;;3.65;;
23990;SDS011;12205;50.600;4.608;2023-01-10T12:14:30;14.95;;;2.85;;
23990;SDS011;12205;50.600;4.608;2023-01-10T12:16:58;20.25;;;3.58;;
23990;SDS011;12205;50.600;4.608;2023-01-10T12:19:28;13.37;;;2.03;;
23990;SDS011;12205;50.600;4.608;2023-01-10T12:21:56;25.38;;;4.18;;
23990;SDS011;12205;50.600;4.608;2023-01-10T12:24:31;25.75;;;3.70;;
23990;SDS011;12205;50.600;4.608;2023-01-10T12:29:31;22.75;;;3.50;;
23990;SDS011;12205;50.600;4.608;2023-01-10T12:32:04;15.05;;;3.10;;
23990;SDS011;12205;50.600;4.608;2023-01-10T12:34:41;21.77;;;3.72;;
23990;SDS011;12205;50.600;4.608;2023-01-10T12:37:13;15.55;;;2.97;;
23990;SDS011;12205;50.600;4.608;2023-01-10T12:39:48;17.40;;;2.88;;
23990;SDS011;12205;50.600;4.608;2023-01-10T12:42:26;25.02;;;4.47;;
23990;SDS011;12205;50.600;4.608;2023-01-10T12:45:31;18.88;;;3.25;;
23990;SDS011;12205;50.600;4.608;2023-01-10T12:48:11;24.27;;;3.47;;
23990;SDS011;12205;50.600;4.608;2023-01-10T12:50:48;13.90;;;2.60;;
23990;SDS011;12205;50.600;4.608;2023-01-10T12:53:25;19.65;;;4.25;;
23990;SDS011;12205;50.600;4.608;2023-01-10T12:56:01;23.20;;;3.70;;
23990;SDS011;12205;50.600;4.608;2023-01-10T12:58:38;14.45;;;3.28;;
23990;SDS011;12205;50.600;4.608;2023-01-10T13:01:11;22.30;;;3.35;;
23990;SDS011;12205;50.600;4.608;2023-01-10T13:03:43;16.08;;;3.25;;
23990;SDS011;12205;50.600;4.608;2023-01-10T13:06:15;24.50;;;3.25;;
23990;SDS011;12205;50.600;4.608;2023-01-10T13:08:50;17.33;;;3.65;;
23990;SDS011;12205;50.600;4.608;2023-01-10T13:11:19;13.63;;;3.08;;
23990;SDS011;12205;50.600;4.608;2023-01-10T13:13:54;15.70;;;2.92;;
23990;SDS011;12205;50.600;4.608;2023-01-10T13:16:30;17.15;;;3.55;;
23990;SDS011;12205;50.600;4.608;2023-01-10T13:19:21;15.35;;;2.70;;
23990;SDS011;12205;50.600;4.608;2023-01-10T13:22:11;23.33;;;4.05;;
23990;SDS011;12205;50.600;4.608;2023-01-10T13:24:55;18.52;;;3.47;;
23990;SDS011;12205;50.600;4.608;2023-01-10T13:27:27;15.25;;;3.22;;
23990;SDS011;12205;50.600;4.608;2023-01-10T13:29:59;19.13;;;3.03;;
23990;SDS011;12205;50.600;4.608;2023-01-10T13:32:31;18.70;;;3.05;;
23990;SDS011;12205;50.600;4.608;2023-01-10T13:35:10;19.95;;;3.35;;
23990;SDS011;12205;50.600;4.608;2023-01-10T13:37:41;12.07;;;2.13;;
23990;SDS011;12205;50.600;4.608;2023-01-10T13:40:18;12.80;;;2.50;;
23990;SDS011;12205;50.600;4.608;2023-01-10T13:46:33;13.98;;;2.78;;
23990;SDS011;12205;50.600;4.608;2023-01-10T13:55:23;16.88;;;3.13;;
23990;SDS011;12205;50.600;4.608;2023-01-10T13:58:00;17.98;;;2.80;;
23990;SDS011;12205;50.600;4.608;2023-01-10T14:00:42;19.97;;;2.67;;
23990;SDS011;12205;50.600;4.608;2023-01-10T14:06:07;7.70;;;2.00;;
23990;SDS011;12205;50.600;4.608;2023-01-10T14:08:50;12.55;;;2.30;;
23990;SDS011;12205;50.600;4.608;2023-01-10T14:11:21;16.95;;;2.85;;
23990;SDS011;12205;50.600;4.608;2023-01-10T14:13:53;16.42;;;2.67;;
23990;SDS011;12205;50.600;4.608;2023-01-10T14:16:29;15.10;;;2.60;;
23990;SDS011;12205;50.600;4.608;2023-01-10T14:19:05;9.07;;;2.20;;
23990;SDS011;12205;50.600;4.608;2023-01-10T14:21:53;12.90;;;2.88;;
23990;SDS011;12205;50.600;4.608;2023-01-10T14:24:24;12.30;;;2.17;;
23990;SDS011;12205;50.600;4.608;2023-01-10T14:26:58;13.35;;;2.50;;
23990;SDS011;12205;50.600;4.608;2023-01-10T14:29:28;6.00;;;2.28;;
23990;SDS011;12205;50.600;4.608;2023-01-10T14:31:59;9.05;;;2.65;;
23990;SDS011;12205;50.600;4.608;2023-01-10T14:34:28;14.98;;;2.80;;
23990;SDS011;12205;50.600;4.608;2023-01-10T14:37:02;12.00;;;2.60;;
23990;SDS011;12205;50.600;4.608;2023-01-10T14:39:39;7.03;;;2.03;;
23990;SDS011;12205;50.600;4.608;2023-01-10T14:42:09;12.88;;;2.33;;
23990;SDS011;12205;50.600;4.608;2023-01-10T14:44:43;7.95;;;2.08;;
23990;SDS011;12205;50.600;4.608;2023-01-10T14:47:26;8.13;;;1.90;;
23990;SDS011;12205;50.600;4.608;2023-01-10T14:49:57;4.22;;;1.67;;
23990;SDS011;12205;50.600;4.608;2023-01-10T14:52:26;14.07;;;3.45;;
23990;SDS011;12205;50.600;4.608;2023-01-10T14:55:00;5.28;;;1.88;;
23990;SDS011;12205;50.600;4.608;2023-01-10T14:57:35;6.47;;;1.80;;
23990;SDS011;12205;50.600;4.608;2023-01-10T15:00:04;5.65;;;2.42;;
23990;SDS011;12205;50.600;4.608;2023-01-10T15:02:34;7.60;;;1.52;;
23990;SDS011;12205;50.600;4.608;2023-01-10T15:05:05;7.10;;;2.20;;
23990;SDS011;12205;50.600;4.608;2023-01-10T15:07:42;3.88;;;1.60;;
23990;SDS011;12205;50.600;4.608;2023-01-10T15:10:17;5.75;;;1.73;;
23990;SDS011;12205;50.600;4.608;2023-01-10T15:12:51;14.43;;;2.15;;
23990;SDS011;12205;50.600;4.608;2023-01-10T15:15:23;9.15;;;2.58;;
23990;SDS011;12205;50.600;4.608;2023-01-10T15:17:58;2.78;;;1.30;;
23990;SDS011;12205;50.600;4.608;2023-01-10T15:20:31;3.67;;;1.40;;
23990;SDS011;12205;50.600;4.608;2023-01-10T15:23:00;4.05;;;1.25;;
23990;SDS011;12205;50.600;4.608;2023-01-10T15:25:28;6.55;;;1.75;;
23990;SDS011;12205;50.600;4.608;2023-01-10T15:28:02;6.18;;;1.35;;
23990;SDS011;12205;50.600;4.608;2023-01-10T15:30:34;5.00;;;1.83;;
23990;SDS011;12205;50.600;4.608;2023-01-10T15:33:03;3.47;;;1.70;;
23990;SDS011;12205;50.600;4.608;2023-01-10T15:35:36;5.22;;;1.80;;